createdAt,value
2019-05-09T00:01:34.023Z,9.77
2019-05-09T00:04:00.519Z,10.53
2019-05-09T00:06:26.837Z,10.13
2019-05-09T00:08:53.405Z,10.33
2019-05-09T00:11:19.669Z,10.30
2019-05-09T00:13:46.011Z,10.00
2019-05-09T00:16:14.592Z,9.87
2019-05-09T00:18:40.621Z,10.73
2019-05-09T00:21:15.096Z,10.20
2019-05-09T00:23:43.587Z,10.60
2019-05-09T00:26:09.496Z,11.67
2019-05-09T00:28:37.848Z,11.33
2019-05-09T00:31:13.640Z,12.60
2019-05-09T00:33:43.982Z,11.80
2019-05-09T00:36:09.822Z,12.30
2019-05-09T00:38:37.937Z,11.27
2019-05-09T00:41:04.162Z,11.40
2019-05-09T00:43:30.389Z,12.00
2019-05-09T00:46:03.859Z,11.27
2019-05-09T00:48:33.700Z,10.10
2019-05-09T00:51:00.024Z,10.37
2019-05-09T00:53:26.246Z,10.30
2019-05-09T00:55:53.044Z,9.80
2019-05-09T00:58:20.294Z,10.27
2019-05-09T01:00:48.118Z,10.57
2019-05-09T01:03:14.505Z,10.00
2019-05-09T01:05:40.733Z,9.83
2019-05-09T01:08:08.875Z,9.80
2019-05-09T01:10:35.007Z,9.53
2019-05-09T01:13:03.440Z,9.90
2019-05-09T01:15:29.460Z,9.57
2019-05-09T01:17:55.559Z,8.90
2019-05-09T01:20:24.020Z,8.33
2019-05-09T01:22:50.042Z,8.23
2019-05-09T01:25:16.411Z,7.80
2019-05-09T01:27:43.194Z,8.00
2019-05-09T01:30:10.009Z,6.83
2019-05-09T01:32:50.312Z,7.57
2019-05-09T01:35:16.609Z,6.20
2019-05-09T01:37:43.377Z,6.10
2019-05-09T01:40:10.007Z,5.90
2019-05-09T01:42:36.163Z,6.43
2019-05-09T01:45:06.241Z,6.43
2019-05-09T01:47:34.136Z,5.90
2019-05-09T01:50:00.511Z,5.20
2019-05-09T01:52:26.861Z,5.63
2019-05-09T01:54:54.154Z,4.57
2019-05-09T01:57:20.501Z,5.10
2019-05-09T01:59:46.742Z,4.70
2019-05-09T02:02:14.213Z,4.43
2019-05-09T02:04:40.972Z,4.47
2019-05-09T02:07:07.580Z,4.60
2019-05-09T02:09:34.470Z,4.80
2019-05-09T02:12:00.915Z,5.30
2019-05-09T02:14:29.187Z,4.70
2019-05-09T02:16:57.373Z,4.47
2019-05-09T02:19:33.175Z,5.50
2019-05-09T02:22:00.703Z,5.27
2019-05-09T02:24:27.029Z,4.93
2019-05-09T02:26:53.489Z,5.10
2019-05-09T02:29:19.944Z,5.03
2019-05-09T02:31:46.190Z,4.93
2019-05-09T02:34:14.893Z,5.00
2019-05-09T02:36:40.544Z,4.80
2019-05-09T02:39:08.926Z,4.93
2019-05-09T02:41:34.930Z,4.77
2019-05-09T02:44:01.653Z,5.13
2019-05-09T02:46:33.037Z,4.80
2019-05-09T02:48:59.637Z,5.03
2019-05-09T02:51:28.985Z,4.53
2019-05-09T02:53:53.984Z,5.23
2019-05-09T02:56:20.112Z,5.53
2019-05-09T02:59:00.005Z,6.13
2019-05-09T03:01:30.687Z,5.70
2019-05-09T03:03:58.918Z,5.30
2019-05-09T03:06:28.134Z,5.63
2019-05-09T03:08:53.191Z,5.40
2019-05-09T03:11:19.336Z,5.73
2019-05-09T03:13:45.673Z,5.63
2019-05-09T03:16:13.776Z,5.30
2019-05-09T03:18:39.985Z,5.13
2019-05-09T03:21:11.234Z,5.33
2019-05-09T03:23:38.922Z,5.00
2019-05-09T03:26:09.146Z,5.00
2019-05-09T03:28:53.186Z,5.17
2019-05-09T03:31:21.224Z,5.00
2019-05-09T03:33:50.135Z,5.37
2019-05-09T03:36:18.013Z,5.50
2019-05-09T03:38:43.821Z,5.27
2019-05-09T03:41:11.144Z,5.40
2019-05-09T03:43:37.822Z,5.43
2019-05-09T03:46:08.882Z,5.40
2019-05-09T03:48:47.819Z,5.53
2019-05-09T03:51:15.409Z,5.30
2019-05-09T03:53:41.568Z,5.30
2019-05-09T03:56:09.726Z,5.27
2019-05-09T03:58:38.680Z,4.83
2019-05-09T04:01:05.405Z,5.20
2019-05-09T04:03:31.668Z,4.90
2019-05-09T04:06:02.530Z,6.03
2019-05-09T04:08:28.074Z,5.53
2019-05-09T04:10:54.181Z,5.90
2019-05-09T04:13:22.918Z,6.03
2019-05-09T04:15:49.290Z,6.10
2019-05-09T04:18:17.704Z,6.10
2019-05-09T04:20:43.986Z,6.33
2019-05-09T04:23:10.095Z,6.23
2019-05-09T04:25:38.151Z,6.37
2019-05-09T04:28:04.673Z,6.53
2019-05-09T04:30:30.933Z,5.90
2019-05-09T04:32:58.164Z,6.23
2019-05-09T04:35:24.508Z,5.33
2019-05-09T04:37:50.810Z,5.87
2019-05-09T04:40:17.781Z,5.27
2019-05-09T04:42:44.533Z,5.17
2019-05-09T04:45:21.689Z,5.10
2019-05-09T04:47:47.790Z,5.33
2019-05-09T04:50:15.291Z,7.10
2019-05-09T04:52:43.296Z,5.40
2019-05-09T04:55:10.657Z,5.73
2019-05-09T04:57:38.267Z,5.20
2019-05-09T05:00:07.568Z,5.07
2019-05-09T05:02:38.079Z,4.53
2019-05-09T05:05:04.925Z,4.67
2019-05-09T05:07:31.175Z,5.00
2019-05-09T05:09:57.679Z,4.90
2019-05-09T05:12:23.968Z,5.23
2019-05-09T05:14:50.225Z,4.83
2019-05-09T05:17:18.054Z,4.70
2019-05-09T05:19:44.508Z,4.90
2019-05-09T05:22:12.726Z,4.67
2019-05-09T05:24:48.722Z,4.30
2019-05-09T05:27:14.712Z,4.27
2019-05-09T05:29:41.055Z,4.90
2019-05-09T05:32:09.271Z,5.00
2019-05-09T05:34:41.383Z,5.50
2019-05-09T05:37:08.626Z,4.90
2019-05-09T05:39:37.353Z,4.57
2019-05-09T05:42:03.334Z,4.90
2019-05-09T05:44:29.615Z,4.23
2019-05-09T05:46:58.466Z,4.53
2019-05-09T05:49:24.944Z,4.47
2019-05-09T05:51:59.063Z,4.67
2019-05-09T05:54:27.799Z,4.17
2019-05-09T05:56:54.350Z,4.93
2019-05-09T05:59:20.892Z,3.97
2019-05-09T06:01:47.998Z,4.73
2019-05-09T06:04:14.635Z,4.30
2019-05-09T06:06:40.893Z,4.40
2019-05-09T06:09:08.265Z,4.53
2019-05-09T06:11:34.746Z,4.20
2019-05-09T06:14:08.323Z,4.50
2019-05-09T06:16:29.792Z,4.73
2019-05-09T06:18:58.632Z,4.90
2019-05-09T06:21:24.663Z,5.27
2019-05-09T06:23:51.016Z,4.60
2019-05-09T06:26:18.561Z,4.77
2019-05-09T06:28:45.103Z,4.70
2019-05-09T06:31:11.321Z,4.70
2019-05-09T06:33:45.065Z,5.50
2019-05-09T06:36:08.022Z,5.27
2019-05-09T06:38:34.371Z,4.90
2019-05-09T06:41:00.816Z,6.20
2019-05-09T06:43:29.181Z,6.10
2019-05-09T06:46:08.136Z,5.80
2019-05-09T06:48:37.720Z,4.77
2019-05-09T06:51:03.831Z,5.27
2019-05-09T06:53:30.154Z,4.93
2019-05-09T06:55:58.011Z,4.60
2019-05-09T06:58:30.916Z,4.60
2019-05-09T07:00:59.144Z,4.80
2019-05-09T07:03:39.454Z,4.23
2019-05-09T07:06:13.387Z,4.03
2019-05-09T07:08:44.157Z,4.23
2019-05-09T07:11:10.599Z,4.30
2019-05-09T07:13:38.178Z,4.20
2019-05-09T07:16:04.846Z,4.10
2019-05-09T07:18:31.086Z,4.00
2019-05-09T07:20:57.757Z,3.83
2019-05-09T07:23:24.208Z,3.60
2019-05-09T07:25:58.315Z,3.70
2019-05-09T07:28:28.143Z,3.60
2019-05-09T07:30:58.754Z,4.10
2019-05-09T07:33:27.838Z,3.57
2019-05-09T07:35:54.144Z,3.60
2019-05-09T07:38:30.663Z,3.43
2019-05-09T07:40:58.187Z,3.30
2019-05-09T07:43:24.358Z,3.23
2019-05-09T07:46:03.390Z,3.13
2019-05-09T07:48:40.642Z,3.00
2019-05-09T07:51:07.795Z,3.40
2019-05-09T07:53:34.689Z,2.60
2019-05-09T07:56:01.120Z,2.90
2019-05-09T07:58:28.387Z,2.90
2019-05-09T08:01:01.277Z,3.23
2019-05-09T08:03:27.568Z,2.87
2019-05-09T08:05:54.097Z,3.03
2019-05-09T08:08:20.402Z,2.80
2019-05-09T08:10:47.767Z,3.00
2019-05-09T08:13:13.999Z,3.03
2019-05-09T08:15:40.356Z,3.17
2019-05-09T08:18:08.453Z,3.10
2019-05-09T08:20:35.085Z,2.57
2019-05-09T08:23:02.282Z,3.10
2019-05-09T08:25:28.796Z,2.53
2019-05-09T08:27:55.217Z,3.20
2019-05-09T08:30:21.669Z,2.57
2019-05-09T08:32:48.406Z,2.57
2019-05-09T08:35:14.842Z,2.90
2019-05-09T08:37:40.975Z,2.60
2019-05-09T08:40:08.199Z,2.60
2019-05-09T08:42:34.668Z,2.70
2019-05-09T08:45:01.111Z,3.10
2019-05-09T08:47:27.834Z,3.03
2019-05-09T08:50:01.840Z,2.90
2019-05-09T08:52:29.383Z,2.60
2019-05-09T08:54:57.975Z,2.97
2019-05-09T08:57:24.335Z,2.73
2019-05-09T08:59:50.972Z,2.60
2019-05-09T09:02:21.985Z,2.40
2019-05-09T09:04:45.615Z,2.80
2019-05-09T09:07:11.888Z,3.13
2019-05-09T09:09:38.395Z,2.70
2019-05-09T09:12:21.129Z,2.67
2019-05-09T09:14:33.161Z,3.13
2019-05-09T09:16:59.402Z,2.70
2019-05-09T09:19:28.035Z,2.47
2019-05-09T09:21:57.349Z,2.73
2019-05-09T09:24:22.427Z,2.17
2019-05-09T09:26:48.681Z,2.30
2019-05-09T09:29:14.796Z,2.47
2019-05-09T09:31:42.194Z,2.50
2019-05-09T09:34:08.413Z,2.20
2019-05-09T09:36:34.607Z,2.60
2019-05-09T09:39:02.999Z,2.40
2019-05-09T09:41:29.054Z,2.87
2019-05-09T09:43:55.317Z,2.43
2019-05-09T09:46:21.670Z,2.10
2019-05-09T09:48:48.326Z,2.40
2019-05-09T09:51:14.737Z,2.60
2019-05-09T09:53:40.963Z,2.30
2019-05-09T09:56:08.650Z,2.47
2019-05-09T09:58:35.202Z,2.57
2019-05-09T10:01:09.444Z,2.30
2019-05-09T10:03:35.679Z,2.60
2019-05-09T10:06:02.003Z,2.27
2019-05-09T10:08:28.488Z,2.30
2019-05-09T10:10:54.840Z,2.10
2019-05-09T10:13:21.436Z,2.13
2019-05-09T10:15:49.452Z,2.50
2019-05-09T10:18:20.357Z,2.90
2019-05-09T10:20:48.643Z,2.47
2019-05-09T10:23:18.839Z,2.73
2019-05-09T10:25:43.174Z,2.80
2019-05-09T10:28:09.417Z,2.80
2019-05-09T10:30:38.000Z,2.50
2019-05-09T10:33:04.026Z,2.90
2019-05-09T10:35:30.369Z,3.20
2019-05-09T10:37:58.861Z,2.93
2019-05-09T10:40:25.249Z,2.87
2019-05-09T10:42:53.510Z,2.90
2019-05-09T10:45:41.071Z,3.20
2019-05-09T10:48:08.286Z,2.70
2019-05-09T10:50:35.154Z,3.03
2019-05-09T10:53:01.722Z,3.03
2019-05-09T10:55:28.426Z,2.70
2019-05-09T10:57:55.326Z,2.90
2019-05-09T11:00:21.793Z,2.63
2019-05-09T11:02:48.430Z,2.60
2019-05-09T11:05:18.279Z,2.73
2019-05-09T11:07:43.971Z,3.00
2019-05-09T11:10:24.505Z,2.47
2019-05-09T11:12:38.445Z,2.40
2019-05-09T11:15:09.133Z,2.53
2019-05-09T11:17:35.751Z,2.27
2019-05-09T11:20:08.437Z,2.40
2019-05-09T11:22:33.535Z,2.70
2019-05-09T11:25:00.158Z,2.30
2019-05-09T11:27:28.974Z,2.43
2019-05-09T11:29:54.775Z,2.27
2019-05-09T11:32:21.039Z,2.17
2019-05-09T11:34:48.615Z,2.57
2019-05-09T11:37:16.984Z,2.50
2019-05-09T11:39:43.307Z,2.17
2019-05-09T11:42:09.678Z,2.00
2019-05-09T11:44:38.400Z,2.20
2019-05-09T11:47:04.034Z,2.20
2019-05-09T11:49:30.446Z,2.60
2019-05-09T11:51:57.642Z,2.10
2019-05-09T11:54:24.095Z,1.90
2019-05-09T11:56:50.483Z,2.60
2019-05-09T11:59:18.923Z,2.17
2019-05-09T12:01:44.956Z,2.53
2019-05-09T12:04:11.203Z,2.47
2019-05-09T12:06:38.295Z,2.50
2019-05-09T12:09:08.653Z,2.17
2019-05-09T12:11:41.292Z,2.20
2019-05-09T12:14:04.364Z,2.37
2019-05-09T12:16:30.658Z,2.50
2019-05-09T12:18:58.347Z,2.20
2019-05-09T12:21:27.981Z,2.20
2019-05-09T12:23:53.539Z,1.90
2019-05-09T12:26:19.918Z,2.17
2019-05-09T12:28:48.354Z,2.10
2019-05-09T12:31:14.809Z,2.30
2019-05-09T12:33:41.512Z,2.07
2019-05-09T12:36:09.209Z,2.10
2019-05-09T12:38:38.889Z,2.30
2019-05-09T12:41:04.746Z,2.20
2019-05-09T12:43:32.203Z,2.40
2019-05-09T12:46:00.041Z,2.20
2019-05-09T12:48:27.900Z,1.83
2019-05-09T12:50:54.446Z,2.60
2019-05-09T12:53:20.901Z,2.10
2019-05-09T12:55:49.330Z,2.10
2019-05-09T12:58:27.865Z,2.30
2019-05-09T13:00:58.469Z,1.80
2019-05-09T13:03:27.693Z,1.90
2019-05-09T13:05:54.163Z,1.97
2019-05-09T13:08:20.505Z,1.80
2019-05-09T13:10:48.862Z,2.00
2019-05-09T13:13:15.272Z,2.00
2019-05-09T13:16:00.033Z,1.60
2019-05-09T13:18:29.696Z,1.43
2019-05-09T13:20:58.075Z,1.50
2019-05-09T13:23:24.162Z,1.90
2019-05-09T13:25:50.640Z,1.80
2019-05-09T13:28:17.598Z,1.50
2019-05-09T13:30:43.863Z,1.90
2019-05-09T13:33:11.020Z,1.77
2019-05-09T13:35:39.314Z,1.57
2019-05-09T13:38:08.534Z,1.90
2019-05-09T13:40:33.842Z,1.90
2019-05-09T13:43:00.118Z,1.40
2019-05-09T13:45:28.653Z,1.40
2019-05-09T13:47:54.612Z,1.70
2019-05-09T13:50:20.943Z,1.50
2019-05-09T13:52:48.043Z,1.47
2019-05-09T13:55:14.463Z,1.30
2019-05-09T13:57:40.909Z,1.13
2019-05-09T14:00:08.868Z,1.10
2019-05-09T14:02:35.204Z,1.40
2019-05-09T14:05:02.879Z,1.27
2019-05-09T14:07:29.259Z,1.30
2019-05-09T14:09:55.630Z,1.40
2019-05-09T14:12:21.947Z,1.30
2019-05-09T14:14:48.249Z,1.10
2019-05-09T14:17:14.625Z,1.30
2019-05-09T14:19:46.551Z,1.30
2019-05-09T14:22:09.397Z,1.20
2019-05-09T14:24:35.869Z,1.70
2019-05-09T14:27:02.304Z,1.23
2019-05-09T14:29:31.667Z,1.00
2019-05-09T14:31:56.785Z,0.93
2019-05-09T14:34:23.012Z,1.30
2019-05-09T14:36:49.695Z,1.20
2019-05-09T14:39:18.020Z,1.40
2019-05-09T14:41:47.068Z,1.27
2019-05-09T14:44:12.328Z,1.43
2019-05-09T14:46:39.320Z,1.60
2019-05-09T14:49:07.910Z,1.40
2019-05-09T14:51:34.194Z,1.50
2019-05-09T14:54:00.416Z,1.43
2019-05-09T14:56:27.987Z,1.70
2019-05-09T14:58:57.724Z,1.77
2019-05-09T15:01:24.677Z,1.50
2019-05-09T15:03:51.215Z,1.87
2019-05-09T15:06:18.362Z,1.60
2019-05-09T15:08:44.780Z,1.40
2019-05-09T15:11:10.972Z,1.53
2019-05-09T15:13:37.245Z,1.70
2019-05-09T15:16:03.582Z,1.40
2019-05-09T15:18:29.861Z,1.73
2019-05-09T15:20:58.132Z,1.50
2019-05-09T15:23:24.659Z,1.43
2019-05-09T15:25:50.909Z,1.00
2019-05-09T15:28:17.705Z,1.13
2019-05-09T15:30:44.007Z,0.80
2019-05-09T15:33:10.181Z,0.97
2019-05-09T15:35:38.850Z,1.10
2019-05-09T15:38:04.757Z,1.00
2019-05-09T15:40:31.038Z,1.30
2019-05-09T15:42:58.760Z,1.03
2019-05-09T15:45:28.576Z,1.10
2019-05-09T15:47:54.997Z,1.10
2019-05-09T15:50:23.278Z,1.20
2019-05-09T15:52:49.896Z,1.00
2019-05-09T15:55:17.713Z,0.97
2019-05-09T15:57:44.296Z,1.10
2019-05-09T16:00:12.441Z,1.13
2019-05-09T16:02:39.272Z,1.30
2019-05-09T16:05:10.061Z,0.90
2019-05-09T16:07:34.418Z,1.10
2019-05-09T16:10:00.856Z,1.10
2019-05-09T16:12:27.746Z,1.10
2019-05-09T16:14:54.151Z,1.10
2019-05-09T16:17:20.555Z,1.03
2019-05-09T16:19:48.302Z,1.10
2019-05-09T16:22:14.930Z,1.10
2019-05-09T16:24:41.253Z,0.80
2019-05-09T16:27:08.437Z,1.10
2019-05-09T16:29:34.989Z,1.60
2019-05-09T16:32:01.497Z,1.80
2019-05-09T16:34:28.307Z,1.60
2019-05-09T16:36:54.863Z,1.60
2019-05-09T16:39:21.324Z,1.60
2019-05-09T16:41:48.399Z,1.83
2019-05-09T16:44:15.035Z,1.77
2019-05-09T16:46:41.534Z,1.57
2019-05-09T16:49:11.724Z,1.50
2019-05-09T16:51:37.942Z,1.60
2019-05-09T16:54:04.484Z,1.60
2019-05-09T16:56:30.788Z,1.70
2019-05-09T16:58:57.830Z,1.40
2019-05-09T17:01:24.360Z,1.50
2019-05-09T17:03:50.688Z,1.50
2019-05-09T17:06:18.383Z,1.60
2019-05-09T17:08:44.821Z,1.60
2019-05-09T17:11:11.296Z,1.50
2019-05-09T17:13:37.543Z,1.77
2019-05-09T17:16:03.950Z,2.23
2019-05-09T17:18:30.503Z,2.17
2019-05-09T17:21:03.115Z,1.60
2019-05-09T17:23:29.637Z,1.47
2019-05-09T17:25:57.895Z,1.40
2019-05-09T17:28:24.650Z,1.73
2019-05-09T17:30:51.267Z,3.20
2019-05-09T17:33:17.608Z,1.97
2019-05-09T17:35:44.059Z,1.47
2019-05-09T17:38:11.485Z,1.40
2019-05-09T17:40:39.066Z,1.73
2019-05-09T17:43:08.260Z,1.50
2019-05-09T17:45:34.283Z,1.40
2019-05-09T17:48:00.568Z,1.70
2019-05-09T17:50:28.387Z,1.53
2019-05-09T17:52:54.833Z,1.57
2019-05-09T17:55:21.230Z,1.63
2019-05-09T17:57:48.029Z,1.90
2019-05-09T18:00:19.258Z,1.70
2019-05-09T18:02:43.292Z,2.13
2019-05-09T18:05:09.851Z,1.90
2019-05-09T18:07:37.720Z,1.80
2019-05-09T18:10:08.575Z,1.90
2019-05-09T18:12:38.251Z,1.70
2019-05-09T18:15:07.541Z,1.60
2019-05-09T18:17:34.122Z,2.10
2019-05-09T18:20:00.466Z,1.50
2019-05-09T18:22:26.993Z,1.40
2019-05-09T18:24:53.398Z,1.70
2019-05-09T18:27:19.662Z,1.80
2019-05-09T18:29:47.429Z,2.00
2019-05-09T18:32:27.984Z,2.17
2019-05-09T18:35:02.058Z,1.90
2019-05-09T18:37:28.473Z,1.93
2019-05-09T18:39:54.650Z,1.80
2019-05-09T18:42:20.931Z,2.20
2019-05-09T18:44:47.688Z,2.20
2019-05-09T18:47:14.478Z,2.00
2019-05-09T18:49:40.762Z,2.47
2019-05-09T18:52:07.143Z,2.10
2019-05-09T18:54:33.467Z,1.90
2019-05-09T18:56:59.740Z,1.90
2019-05-09T18:59:25.917Z,2.00
2019-05-09T19:01:52.267Z,2.50
2019-05-09T19:04:18.546Z,3.47
2019-05-09T19:06:46.611Z,2.30
2019-05-09T19:09:12.880Z,2.20
2019-05-09T19:11:39.585Z,2.40
2019-05-09T19:14:07.296Z,2.30
2019-05-09T19:16:48.348Z,2.80
2019-05-09T19:19:25.185Z,2.83
2019-05-09T19:21:56.003Z,2.90
2019-05-09T19:24:22.423Z,2.43
2019-05-09T19:26:48.807Z,2.50
2019-05-09T19:29:15.280Z,2.73
2019-05-09T19:31:42.099Z,6.07
2019-05-09T19:34:08.581Z,3.43
2019-05-09T19:36:35.247Z,2.87
2019-05-09T19:39:01.704Z,2.77
2019-05-09T19:41:29.220Z,2.97
2019-05-09T19:43:55.660Z,3.33
2019-05-09T19:46:22.024Z,3.30
2019-05-09T19:48:48.668Z,3.67
2019-05-09T19:51:16.251Z,3.33
2019-05-09T19:53:42.787Z,3.40
2019-05-09T19:56:11.631Z,3.50
2019-05-09T19:58:38.017Z,3.77
2019-05-09T20:01:04.610Z,3.97
2019-05-09T20:03:30.876Z,3.93
2019-05-09T20:05:57.434Z,4.00
2019-05-09T20:08:24.026Z,4.03
2019-05-09T20:10:55.078Z,4.00
2019-05-09T20:13:26.030Z,4.73
2019-05-09T20:15:52.492Z,4.80
2019-05-09T20:18:19.936Z,4.70
2019-05-09T20:20:46.276Z,5.13
2019-05-09T20:23:13.621Z,4.97
2019-05-09T20:25:40.079Z,5.00
2019-05-09T20:28:06.773Z,5.23
2019-05-09T20:30:33.389Z,5.07
2019-05-09T20:32:59.676Z,5.13
2019-05-09T20:35:26.281Z,5.50
2019-05-09T20:37:53.996Z,5.50
2019-05-09T20:40:20.295Z,5.50
2019-05-09T20:42:46.807Z,5.80
2019-05-09T20:45:13.174Z,6.47
2019-05-09T20:47:39.653Z,5.97
2019-05-09T20:50:06.790Z,5.77
2019-05-09T20:52:33.489Z,5.77
2019-05-09T20:55:00.395Z,6.37
2019-05-09T20:57:27.248Z,6.57
2019-05-09T20:59:53.799Z,6.60
2019-05-09T21:02:20.510Z,6.43
2019-05-09T21:04:47.155Z,6.30
2019-05-09T21:07:14.006Z,6.60
2019-05-09T21:09:41.048Z,6.67
2019-05-09T21:12:11.132Z,7.10
2019-05-09T21:14:37.925Z,6.63
2019-05-09T21:17:04.937Z,7.43
2019-05-09T21:19:31.307Z,6.83
2019-05-09T21:21:58.666Z,7.03
2019-05-09T21:24:25.009Z,6.83
2019-05-09T21:26:51.240Z,6.73
2019-05-09T21:29:17.566Z,6.67
2019-05-09T21:31:44.074Z,6.60
2019-05-09T21:34:10.338Z,7.17
2019-05-09T21:36:36.680Z,7.47
2019-05-09T21:39:05.144Z,7.30
2019-05-09T21:41:31.483Z,7.37
2019-05-09T21:43:57.781Z,7.23
2019-05-09T21:46:23.916Z,8.20
2019-05-09T21:48:50.322Z,8.37
2019-05-09T21:51:17.725Z,9.37
2019-05-09T21:53:44.125Z,9.40
2019-05-09T21:56:10.482Z,12.13
2019-05-09T21:58:36.761Z,14.00
2019-05-09T22:01:06.480Z,13.10
2019-05-09T22:03:33.020Z,13.70
2019-05-09T22:05:59.457Z,15.40
2019-05-09T22:08:25.993Z,15.43
2019-05-09T22:10:52.333Z,17.10
2019-05-09T22:13:18.752Z,17.80
2019-05-09T22:15:45.180Z,15.97
2019-05-09T22:18:13.465Z,15.67
2019-05-09T22:20:39.681Z,15.13
2019-05-09T22:23:06.738Z,16.10
2019-05-09T22:25:34.222Z,15.87
2019-05-09T22:28:00.759Z,16.80
2019-05-09T22:30:27.199Z,18.00
2019-05-09T22:32:53.453Z,19.23
2019-05-09T22:35:19.776Z,20.77
2019-05-09T22:37:45.924Z,24.07
2019-05-09T22:40:12.852Z,26.33
2019-05-09T22:42:39.176Z,27.53
2019-05-09T22:45:06.177Z,31.47
2019-05-09T22:47:32.500Z,34.27
2019-05-09T22:49:58.834Z,36.60
2019-05-09T22:52:25.136Z,38.67
2019-05-09T22:54:51.560Z,38.83
2019-05-09T22:57:17.906Z,37.73
2019-05-09T22:59:47.004Z,40.63
2019-05-09T23:02:13.308Z,36.93
2019-05-09T23:04:39.553Z,41.47
2019-05-09T23:07:06.038Z,40.33
2019-05-09T23:09:32.285Z,39.67
2019-05-09T23:11:58.528Z,37.77
2019-05-09T23:14:26.162Z,36.93
2019-05-09T23:16:52.498Z,36.47
2019-05-09T23:19:18.813Z,39.37
2019-05-09T23:21:45.511Z,34.70
2019-05-09T23:24:27.541Z,34.30
2019-05-09T23:26:42.047Z,35.93
2019-05-09T23:29:08.417Z,36.30
2019-05-09T23:31:42.503Z,33.23
2019-05-09T23:34:08.723Z,33.17
2019-05-09T23:36:35.097Z,30.57
2019-05-09T23:39:09.075Z,32.93
2019-05-09T23:41:35.390Z,33.33
2019-05-09T23:44:01.635Z,29.93
2019-05-09T23:46:27.739Z,31.57
2019-05-09T23:48:53.834Z,29.37
2019-05-09T23:51:20.067Z,33.20
2019-05-09T23:53:55.199Z,31.60
2019-05-09T23:56:39.937Z,30.10
2019-05-09T23:59:25.878Z,29.67
